sensor_id;sensor_type;location;lat;lon;timestamp;temperature;humidity
21061;DHT22;10689;50.836;3.266;2023-02-11T00:00:31;6.80;99.90
21061;DHT22;10689;50.836;3.266;2023-02-11T00:02:57;6.70;99.90
21061;DHT22;10689;50.836;3.266;2023-02-11T00:05:22;6.60;99.90
21061;DHT22;10689;50.836;3.266;2023-02-11T00:07:48;6.60;99.90
21061;DHT22;10689;50.836;3.266;2023-02-11T00:10:14;6.60;99.90
21061;DHT22;10689;50.836;3.266;2023-02-11T00:12:39;6.60;99.90
21061;DHT22;10689;50.836;3.266;2023-02-11T00:15:07;6.50;99.90
21061;DHT22;10689;50.836;3.266;2023-02-11T00:17:35;6.50;99.90
21061;DHT22;10689;50.836;3.266;2023-02-11T00:20:01;6.60;99.90
21061;DHT22;10689;50.836;3.266;2023-02-11T00:22:29;6.50;99.90
21061;DHT22;10689;50.836;3.266;2023-02-11T00:24:55;6.50;99.90
21061;DHT22;10689;50.836;3.266;2023-02-11T00:27:21;6.50;99.90
21061;DHT22;10689;50.836;3.266;2023-02-11T00:29:47;6.40;99.90
21061;DHT22;10689;50.836;3.266;2023-02-11T00:32:13;6.50;99.90
21061;DHT22;10689;50.836;3.266;2023-02-11T00:34:38;6.40;99.90
21061;DHT22;10689;50.836;3.266;2023-02-11T00:37:04;6.40;99.90
21061;DHT22;10689;50.836;3.266;2023-02-11T00:39:30;6.50;99.90
21061;DHT22;10689;50.836;3.266;2023-02-11T00:41:56;6.50;99.90
21061;DHT22;10689;50.836;3.266;2023-02-11T00:44:22;6.60;99.90
21061;DHT22;10689;50.836;3.266;2023-02-11T00:46:48;6.50;99.90
21061;DHT22;10689;50.836;3.266;2023-02-11T00:49:13;6.40;99.90
21061;DHT22;10689;50.836;3.266;2023-02-11T00:51:39;6.50;99.90
21061;DHT22;10689;50.836;3.266;2023-02-11T00:54:05;6.40;99.90
21061;DHT22;10689;50.836;3.266;2023-02-11T00:56:30;6.50;99.90
21061;DHT22;10689;50.836;3.266;2023-02-11T00:58:57;6.50;99.90
21061;DHT22;10689;50.836;3.266;2023-02-11T01:01:23;6.50;99.90
21061;DHT22;10689;50.836;3.266;2023-02-11T01:03:49;6.50;99.90
21061;DHT22;10689;50.836;3.266;2023-02-11T01:06:15;6.60;99.90
21061;DHT22;10689;50.836;3.266;2023-02-11T01:08:43;6.70;99.90
21061;DHT22;10689;50.836;3.266;2023-02-11T01:11:17;6.80;99.90
21061;DHT22;10689;50.836;3.266;2023-02-11T01:13:44;6.80;99.90
21061;DHT22;10689;50.836;3.266;2023-02-11T01:16:12;6.80;99.90
21061;DHT22;10689;50.836;3.266;2023-02-11T01:18:39;6.80;99.90
21061;DHT22;10689;50.836;3.266;2023-02-11T01:21:06;6.80;99.90
21061;DHT22;10689;50.836;3.266;2023-02-11T01:23:32;6.80;99.90
21061;DHT22;10689;50.836;3.266;2023-02-11T01:25:58;6.80;99.90
21061;DHT22;10689;50.836;3.266;2023-02-11T01:28:26;6.80;99.90
21061;DHT22;10689;50.836;3.266;2023-02-11T01:30:55;6.80;99.90
21061;DHT22;10689;50.836;3.266;2023-02-11T01:33:22;6.90;99.90
21061;DHT22;10689;50.836;3.266;2023-02-11T01:35:48;6.90;99.90
21061;DHT22;10689;50.836;3.266;2023-02-11T01:38:19;6.90;99.90
21061;DHT22;10689;50.836;3.266;2023-02-11T01:40:55;6.90;99.90
21061;DHT22;10689;50.836;3.266;2023-02-11T01:43:24;7.00;99.90
21061;DHT22;10689;50.836;3.266;2023-02-11T01:45:59;7.00;99.90
21061;DHT22;10689;50.836;3.266;2023-02-11T01:48:31;7.00;99.90
21061;DHT22;10689;50.836;3.266;2023-02-11T01:51:05;7.00;99.90
21061;DHT22;10689;50.836;3.266;2023-02-11T01:53:36;7.00;99.90
21061;DHT22;10689;50.836;3.266;2023-02-11T01:56:21;7.00;99.90
21061;DHT22;10689;50.836;3.266;2023-02-11T01:59:12;7.20;99.90
21061;DHT22;10689;50.836;3.266;2023-02-11T02:01:40;7.20;99.90
21061;DHT22;10689;50.836;3.266;2023-02-11T02:04:08;7.30;99.90
21061;DHT22;10689;50.836;3.266;2023-02-11T02:06:48;7.30;99.90
21061;DHT22;10689;50.836;3.266;2023-02-11T02:09:20;7.30;99.90
21061;DHT22;10689;50.836;3.266;2023-02-11T02:11:47;7.40;99.90
21061;DHT22;10689;50.836;3.266;2023-02-11T02:14:13;7.50;99.90
21061;DHT22;10689;50.836;3.266;2023-02-11T02:16:39;7.50;99.90
21061;DHT22;10689;50.836;3.266;2023-02-11T02:38:37;7.90;99.90
21061;DHT22;10689;50.836;3.266;2023-02-11T02:41:08;7.90;99.90
21061;DHT22;10689;50.836;3.266;2023-02-11T02:43:36;8.00;99.90
21061;DHT22;10689;50.836;3.266;2023-02-11T02:48:49;8.00;99.90
21061;DHT22;10689;50.836;3.266;2023-02-11T03:07:24;8.30;99.90
21061;DHT22;10689;50.836;3.266;2023-02-11T03:12:22;8.20;99.90
21061;DHT22;10689;50.836;3.266;2023-02-11T03:14:51;8.30;99.90
21061;DHT22;10689;50.836;3.266;2023-02-11T03:17:22;8.30;99.90
21061;DHT22;10689;50.836;3.266;2023-02-11T03:19:49;8.20;99.90
21061;DHT22;10689;50.836;3.266;2023-02-11T03:22:35;8.10;99.90
21061;DHT22;10689;50.836;3.266;2023-02-11T03:25:06;8.10;99.90
21061;DHT22;10689;50.836;3.266;2023-02-11T03:27:40;8.20;99.90
21061;DHT22;10689;50.836;3.266;2023-02-11T03:33:36;8.20;99.90
21061;DHT22;10689;50.836;3.266;2023-02-11T03:36:09;8.20;99.90
21061;DHT22;10689;50.836;3.266;2023-02-11T03:38:45;8.20;99.90
21061;DHT22;10689;50.836;3.266;2023-02-11T03:41:15;8.20;99.90
21061;DHT22;10689;50.836;3.266;2023-02-11T03:43:45;8.20;99.90
21061;DHT22;10689;50.836;3.266;2023-02-11T03:46:16;8.20;99.90
21061;DHT22;10689;50.836;3.266;2023-02-11T03:48:48;8.20;99.90
21061;DHT22;10689;50.836;3.266;2023-02-11T03:51:16;8.20;99.90
21061;DHT22;10689;50.836;3.266;2023-02-11T03:53:45;8.20;99.90
21061;DHT22;10689;50.836;3.266;2023-02-11T03:56:15;8.10;99.90
21061;DHT22;10689;50.836;3.266;2023-02-11T03:58:44;8.20;99.90
21061;DHT22;10689;50.836;3.266;2023-02-11T04:01:10;8.10;99.90
21061;DHT22;10689;50.836;3.266;2023-02-11T04:03:35;8.10;99.90
21061;DHT22;10689;50.836;3.266;2023-02-11T04:06:04;8.10;99.90
21061;DHT22;10689;50.836;3.266;2023-02-11T04:08:29;8.20;99.90
21061;DHT22;10689;50.836;3.266;2023-02-11T04:10:58;8.20;99.90
21061;DHT22;10689;50.836;3.266;2023-02-11T04:13:27;8.30;99.90
21061;DHT22;10689;50.836;3.266;2023-02-11T04:15:52;8.30;99.90
21061;DHT22;10689;50.836;3.266;2023-02-11T04:18:18;8.30;99.90
21061;DHT22;10689;50.836;3.266;2023-02-11T04:20:46;8.30;99.90
21061;DHT22;10689;50.836;3.266;2023-02-11T04:23:14;8.20;99.90
21061;DHT22;10689;50.836;3.266;2023-02-11T04:25:41;8.40;99.90
21061;DHT22;10689;50.836;3.266;2023-02-11T04:28:06;8.40;99.90
21061;DHT22;10689;50.836;3.266;2023-02-11T04:30:32;8.50;99.90
21061;DHT22;10689;50.836;3.266;2023-02-11T04:32:58;8.40;99.90
21061;DHT22;10689;50.836;3.266;2023-02-11T04:35:24;8.40;99.90
21061;DHT22;10689;50.836;3.266;2023-02-11T04:37:49;8.40;99.90
21061;DHT22;10689;50.836;3.266;2023-02-11T04:40:15;8.40;99.90
21061;DHT22;10689;50.836;3.266;2023-02-11T04:42:41;8.30;99.90
21061;DHT22;10689;50.836;3.266;2023-02-11T04:45:09;8.30;99.90
21061;DHT22;10689;50.836;3.266;2023-02-11T04:47:35;8.40;99.90
21061;DHT22;10689;50.836;3.266;2023-02-11T04:50:02;8.40;99.90
21061;DHT22;10689;50.836;3.266;2023-02-11T04:52:27;8.50;99.90
21061;DHT22;10689;50.836;3.266;2023-02-11T04:54:53;8.50;99.90
21061;DHT22;10689;50.836;3.266;2023-02-11T04:57:19;8.40;99.90
21061;DHT22;10689;50.836;3.266;2023-02-11T04:59:49;8.40;99.90
21061;DHT22;10689;50.836;3.266;2023-02-11T05:02:15;8.40;99.90
21061;DHT22;10689;50.836;3.266;2023-02-11T05:04:40;8.50;99.90
21061;DHT22;10689;50.836;3.266;2023-02-11T05:07:06;8.50;99.90
21061;DHT22;10689;50.836;3.266;2023-02-11T05:09:32;8.50;99.90
21061;DHT22;10689;50.836;3.266;2023-02-11T05:11:57;8.50;99.90
21061;DHT22;10689;50.836;3.266;2023-02-11T05:14:23;8.60;99.90
21061;DHT22;10689;50.836;3.266;2023-02-11T05:16:48;8.60;99.90
21061;DHT22;10689;50.836;3.266;2023-02-11T05:19:16;8.60;99.90
21061;DHT22;10689;50.836;3.266;2023-02-11T05:21:42;8.60;99.90
21061;DHT22;10689;50.836;3.266;2023-02-11T05:24:08;8.60;99.90
21061;DHT22;10689;50.836;3.266;2023-02-11T05:26:33;8.60;99.90
21061;DHT22;10689;50.836;3.266;2023-02-11T05:28:59;8.60;99.90
21061;DHT22;10689;50.836;3.266;2023-02-11T05:31:27;8.70;99.90
21061;DHT22;10689;50.836;3.266;2023-02-11T05:33:53;8.70;99.90
21061;DHT22;10689;50.836;3.266;2023-02-11T05:36:18;8.70;99.90
21061;DHT22;10689;50.836;3.266;2023-02-11T05:38:44;8.70;99.90
21061;DHT22;10689;50.836;3.266;2023-02-11T05:41:10;8.70;99.90
21061;DHT22;10689;50.836;3.266;2023-02-11T05:43:36;8.70;99.90
21061;DHT22;10689;50.836;3.266;2023-02-11T05:46:03;8.70;99.90
21061;DHT22;10689;50.836;3.266;2023-02-11T05:48:29;8.80;99.90
21061;DHT22;10689;50.836;3.266;2023-02-11T05:50:57;8.70;99.90
21061;DHT22;10689;50.836;3.266;2023-02-11T05:53:23;8.70;99.90
21061;DHT22;10689;50.836;3.266;2023-02-11T05:55:48;8.70;99.90
21061;DHT22;10689;50.836;3.266;2023-02-11T05:58:14;8.70;99.90
21061;DHT22;10689;50.836;3.266;2023-02-11T06:00:40;8.80;99.90
21061;DHT22;10689;50.836;3.266;2023-02-11T06:03:06;9.00;99.90
21061;DHT22;10689;50.836;3.266;2023-02-11T06:05:32;8.90;99.90
21061;DHT22;10689;50.836;3.266;2023-02-11T06:07:58;8.80;99.90
21061;DHT22;10689;50.836;3.266;2023-02-11T06:10:24;8.70;99.90
21061;DHT22;10689;50.836;3.266;2023-02-11T06:12:50;8.70;99.90
21061;DHT22;10689;50.836;3.266;2023-02-11T06:15:15;8.70;99.90
21061;DHT22;10689;50.836;3.266;2023-02-11T06:17:41;8.70;99.90
21061;DHT22;10689;50.836;3.266;2023-02-11T06:20:09;8.80;99.90
21061;DHT22;10689;50.836;3.266;2023-02-11T06:22:37;8.80;99.90
21061;DHT22;10689;50.836;3.266;2023-02-11T06:25:03;8.80;99.90
21061;DHT22;10689;50.836;3.266;2023-02-11T06:27:29;8.80;99.90
21061;DHT22;10689;50.836;3.266;2023-02-11T06:29:55;8.80;99.90
21061;DHT22;10689;50.836;3.266;2023-02-11T06:32:21;8.80;99.90
21061;DHT22;10689;50.836;3.266;2023-02-11T06:34:46;8.80;99.90
21061;DHT22;10689;50.836;3.266;2023-02-11T06:37:12;8.80;99.90
21061;DHT22;10689;50.836;3.266;2023-02-11T06:39:38;8.80;99.90
21061;DHT22;10689;50.836;3.266;2023-02-11T06:42:04;8.80;99.90
21061;DHT22;10689;50.836;3.266;2023-02-11T06:44:29;8.80;99.90
21061;DHT22;10689;50.836;3.266;2023-02-11T06:46:58;8.80;99.90
21061;DHT22;10689;50.836;3.266;2023-02-11T06:49:24;8.90;99.90
21061;DHT22;10689;50.836;3.266;2023-02-11T06:51:50;8.90;99.90
21061;DHT22;10689;50.836;3.266;2023-02-11T06:54:15;8.90;99.90
21061;DHT22;10689;50.836;3.266;2023-02-11T06:56:43;8.90;99.90
21061;DHT22;10689;50.836;3.266;2023-02-11T06:59:17;9.00;99.90
21061;DHT22;10689;50.836;3.266;2023-02-11T07:01:45;8.80;99.90
21061;DHT22;10689;50.836;3.266;2023-02-11T07:04:11;8.80;99.90
21061;DHT22;10689;50.836;3.266;2023-02-11T07:06:39;8.70;99.90
21061;DHT22;10689;50.836;3.266;2023-02-11T07:09:05;8.70;99.90
21061;DHT22;10689;50.836;3.266;2023-02-11T07:11:32;8.60;99.90
21061;DHT22;10689;50.836;3.266;2023-02-11T07:14:06;8.70;99.90
21061;DHT22;10689;50.836;3.266;2023-02-11T07:16:35;8.70;99.90
21061;DHT22;10689;50.836;3.266;2023-02-11T07:19:01;8.80;99.90
21061;DHT22;10689;50.836;3.266;2023-02-11T07:21:27;8.80;99.90
21061;DHT22;10689;50.836;3.266;2023-02-11T07:23:52;8.80;99.90
21061;DHT22;10689;50.836;3.266;2023-02-11T07:26:20;8.80;99.90
21061;DHT22;10689;50.836;3.266;2023-02-11T07:28:50;8.90;99.90
21061;DHT22;10689;50.836;3.266;2023-02-11T07:31:22;9.00;99.90
21061;DHT22;10689;50.836;3.266;2023-02-11T07:33:52;9.00;99.90
21061;DHT22;10689;50.836;3.266;2023-02-11T07:36:18;9.00;99.90
21061;DHT22;10689;50.836;3.266;2023-02-11T07:38:44;9.00;99.90
21061;DHT22;10689;50.836;3.266;2023-02-11T07:41:15;9.00;99.90
21061;DHT22;10689;50.836;3.266;2023-02-11T07:43:42;9.10;99.90
21061;DHT22;10689;50.836;3.266;2023-02-11T07:46:11;9.10;99.90
21061;DHT22;10689;50.836;3.266;2023-02-11T07:48:37;9.20;99.90
21061;DHT22;10689;50.836;3.266;2023-02-11T07:51:14;9.20;99.90
21061;DHT22;10689;50.836;3.266;2023-02-11T07:53:41;9.30;99.90
21061;DHT22;10689;50.836;3.266;2023-02-11T07:56:08;9.30;99.90
21061;DHT22;10689;50.836;3.266;2023-02-11T07:58:35;9.40;99.90
21061;DHT22;10689;50.836;3.266;2023-02-11T08:01:03;9.40;99.90
21061;DHT22;10689;50.836;3.266;2023-02-11T08:03:31;9.40;99.90
21061;DHT22;10689;50.836;3.266;2023-02-11T08:05:57;9.50;99.90
21061;DHT22;10689;50.836;3.266;2023-02-11T08:08:25;9.50;99.90
21061;DHT22;10689;50.836;3.266;2023-02-11T08:10:53;9.50;99.90
21061;DHT22;10689;50.836;3.266;2023-02-11T08:13:19;9.50;99.90
21061;DHT22;10689;50.836;3.266;2023-02-11T08:15:45;9.60;99.90
21061;DHT22;10689;50.836;3.266;2023-02-11T08:18:10;9.60;99.90
21061;DHT22;10689;50.836;3.266;2023-02-11T08:20:36;9.70;99.90
21061;DHT22;10689;50.836;3.266;2023-02-11T08:23:05;9.70;99.90
21061;DHT22;10689;50.836;3.266;2023-02-11T08:25:32;9.80;99.90
21061;DHT22;10689;50.836;3.266;2023-02-11T08:27:57;9.80;99.90
21061;DHT22;10689;50.836;3.266;2023-02-11T08:30:23;9.80;99.90
21061;DHT22;10689;50.836;3.266;2023-02-11T08:32:49;10.00;99.90
21061;DHT22;10689;50.836;3.266;2023-02-11T08:35:15;10.00;99.90
21061;DHT22;10689;50.836;3.266;2023-02-11T08:37:41;9.80;99.90
21061;DHT22;10689;50.836;3.266;2023-02-11T08:40:07;9.60;99.90
21061;DHT22;10689;50.836;3.266;2023-02-11T08:42:32;9.60;99.90
21061;DHT22;10689;50.836;3.266;2023-02-11T08:44:58;9.60;99.90
21061;DHT22;10689;50.836;3.266;2023-02-11T08:47:24;9.70;99.90
21061;DHT22;10689;50.836;3.266;2023-02-11T08:49:49;9.60;99.90
21061;DHT22;10689;50.836;3.266;2023-02-11T08:52:15;9.40;99.90
21061;DHT22;10689;50.836;3.266;2023-02-11T08:54:41;9.30;99.90
21061;DHT22;10689;50.836;3.266;2023-02-11T08:57:06;9.20;99.90
21061;DHT22;10689;50.836;3.266;2023-02-11T08:59:34;9.20;99.90
21061;DHT22;10689;50.836;3.266;2023-02-11T09:02:00;9.40;99.90
21061;DHT22;10689;50.836;3.266;2023-02-11T09:04:30;9.70;99.90
21061;DHT22;10689;50.836;3.266;2023-02-11T09:06:56;9.70;99.90
21061;DHT22;10689;50.836;3.266;2023-02-11T09:09:24;9.60;99.90
21061;DHT22;10689;50.836;3.266;2023-02-11T09:11:49;9.50;99.90
21061;DHT22;10689;50.836;3.266;2023-02-11T09:14:27;9.50;99.90
21061;DHT22;10689;50.836;3.266;2023-02-11T09:16:53;9.60;99.90
21061;DHT22;10689;50.836;3.266;2023-02-11T09:19:19;9.70;99.90
21061;DHT22;10689;50.836;3.266;2023-02-11T09:21:45;9.70;99.90
21061;DHT22;10689;50.836;3.266;2023-02-11T09:24:11;9.80;99.90
21061;DHT22;10689;50.836;3.266;2023-02-11T09:26:41;9.90;99.90
21061;DHT22;10689;50.836;3.266;2023-02-11T09:29:06;9.60;99.90
21061;DHT22;10689;50.836;3.266;2023-02-11T09:31:33;9.50;99.90
21061;DHT22;10689;50.836;3.266;2023-02-11T09:34:02;9.50;99.90
21061;DHT22;10689;50.836;3.266;2023-02-11T09:36:33;9.60;99.90
21061;DHT22;10689;50.836;3.266;2023-02-11T09:39:01;9.70;99.90
21061;DHT22;10689;50.836;3.266;2023-02-11T09:44:26;10.00;99.90
21061;DHT22;10689;50.836;3.266;2023-02-11T09:47:02;10.10;99.90
21061;DHT22;10689;50.836;3.266;2023-02-11T09:50:10;10.00;99.90
21061;DHT22;10689;50.836;3.266;2023-02-11T09:52:46;9.80;99.90
21061;DHT22;10689;50.836;3.266;2023-02-11T09:55:19;10.00;99.90
21061;DHT22;10689;50.836;3.266;2023-02-11T09:57:48;10.20;99.90
21061;DHT22;10689;50.836;3.266;2023-02-11T10:00:21;10.00;99.90
21061;DHT22;10689;50.836;3.266;2023-02-11T10:20:43;9.60;99.90
21061;DHT22;10689;50.836;3.266;2023-02-11T10:23:24;9.80;99.90
21061;DHT22;10689;50.836;3.266;2023-02-11T10:25:55;9.70;99.90
21061;DHT22;10689;50.836;3.266;2023-02-11T10:28:48;9.80;99.90
21061;DHT22;10689;50.836;3.266;2023-02-11T10:31:26;10.20;99.90
21061;DHT22;10689;50.836;3.266;2023-02-11T10:34:00;10.30;99.90
21061;DHT22;10689;50.836;3.266;2023-02-11T10:36:33;10.50;99.90
21061;DHT22;10689;50.836;3.266;2023-02-11T10:39:11;10.50;99.90
21061;DHT22;10689;50.836;3.266;2023-02-11T10:41:43;10.20;99.90
21061;DHT22;10689;50.836;3.266;2023-02-11T10:44:27;10.40;99.90
21061;DHT22;10689;50.836;3.266;2023-02-11T10:46:56;10.60;99.90
21061;DHT22;10689;50.836;3.266;2023-02-11T10:49:52;10.80;99.90
21061;DHT22;10689;50.836;3.266;2023-02-11T10:52:24;10.80;99.90
21061;DHT22;10689;50.836;3.266;2023-02-11T10:55:02;10.60;99.90
21061;DHT22;10689;50.836;3.266;2023-02-11T10:57:41;10.40;99.90
21061;DHT22;10689;50.836;3.266;2023-02-11T11:00:32;10.20;99.90
21061;DHT22;10689;50.836;3.266;2023-02-11T11:03:05;10.20;99.90
21061;DHT22;10689;50.836;3.266;2023-02-11T11:05:45;10.30;99.90
21061;DHT22;10689;50.836;3.266;2023-02-11T11:08:11;10.60;99.90
21061;DHT22;10689;50.836;3.266;2023-02-11T11:11:03;10.60;99.90
21061;DHT22;10689;50.836;3.266;2023-02-11T11:18:34;10.20;99.90
21061;DHT22;10689;50.836;3.266;2023-02-11T11:21:03;10.20;99.90
21061;DHT22;10689;50.836;3.266;2023-02-11T11:23:35;10.20;99.90
21061;DHT22;10689;50.836;3.266;2023-02-11T11:26:10;10.20;99.90
21061;DHT22;10689;50.836;3.266;2023-02-11T11:28:50;10.20;99.90
21061;DHT22;10689;50.836;3.266;2023-02-11T11:31:26;10.20;99.90
21061;DHT22;10689;50.836;3.266;2023-02-11T11:33:55;10.30;99.90
21061;DHT22;10689;50.836;3.266;2023-02-11T11:36:30;10.30;99.90
21061;DHT22;10689;50.836;3.266;2023-02-11T11:39:02;10.50;99.90
21061;DHT22;10689;50.836;3.266;2023-02-11T11:41:33;10.60;99.90
21061;DHT22;10689;50.836;3.266;2023-02-11T11:46:38;10.60;99.90
21061;DHT22;10689;50.836;3.266;2023-02-11T11:51:35;10.60;99.90
21061;DHT22;10689;50.836;3.266;2023-02-11T11:54:10;10.60;99.90
21061;DHT22;10689;50.836;3.266;2023-02-11T11:56:45;10.90;99.90
21061;DHT22;10689;50.836;3.266;2023-02-11T11:59:13;10.90;99.90
21061;DHT22;10689;50.836;3.266;2023-02-11T12:16:29;11.10;99.90
21061;DHT22;10689;50.836;3.266;2023-02-11T12:21:46;11.20;99.90
21061;DHT22;10689;50.836;3.266;2023-02-11T12:26:55;11.50;99.90
21061;DHT22;10689;50.836;3.266;2023-02-11T12:29:47;11.30;99.90
21061;DHT22;10689;50.836;3.266;2023-02-11T12:32:33;11.10;99.90
21061;DHT22;10689;50.836;3.266;2023-02-11T12:37:57;10.90;99.90
21061;DHT22;10689;50.836;3.266;2023-02-11T12:43:24;10.70;99.90
21061;DHT22;10689;50.836;3.266;2023-02-11T12:46:17;10.90;99.90
21061;DHT22;10689;50.836;3.266;2023-02-11T12:49:06;10.80;99.90
21061;DHT22;10689;50.836;3.266;2023-02-11T12:51:48;10.60;99.90
21061;DHT22;10689;50.836;3.266;2023-02-11T13:01:52;11.00;99.90
21061;DHT22;10689;50.836;3.266;2023-02-11T13:04:37;11.00;99.90
21061;DHT22;10689;50.836;3.266;2023-02-11T13:07:14;11.30;99.90
21061;DHT22;10689;50.836;3.266;2023-02-11T13:09:47;11.10;99.90
21061;DHT22;10689;50.836;3.266;2023-02-11T13:12:18;11.10;99.90
21061;DHT22;10689;50.836;3.266;2023-02-11T13:15:08;11.10;99.90
21061;DHT22;10689;50.836;3.266;2023-02-11T13:17:48;11.20;99.90
21061;DHT22;10689;50.836;3.266;2023-02-11T13:26:01;11.20;99.90
21061;DHT22;10689;50.836;3.266;2023-02-11T13:31:04;11.40;99.90
21061;DHT22;10689;50.836;3.266;2023-02-11T13:33:36;11.60;99.90
21061;DHT22;10689;50.836;3.266;2023-02-11T13:38:30;11.60;99.90
21061;DHT22;10689;50.836;3.266;2023-02-11T13:41:16;11.60;99.90
21061;DHT22;10689;50.836;3.266;2023-02-11T13:43:43;11.60;99.90
21061;DHT22;10689;50.836;3.266;2023-02-11T13:46:13;11.90;99.90
21061;DHT22;10689;50.836;3.266;2023-02-11T13:48:48;12.00;99.90
21061;DHT22;10689;50.836;3.266;2023-02-11T13:51:38;12.20;99.90
21061;DHT22;10689;50.836;3.266;2023-02-11T13:54:05;12.10;99.90
21061;DHT22;10689;50.836;3.266;2023-02-11T13:56:37;11.80;99.90
21061;DHT22;10689;50.836;3.266;2023-02-11T13:59:50;11.60;99.90
21061;DHT22;10689;50.836;3.266;2023-02-11T14:02:08;11.60;99.90
21061;DHT22;10689;50.836;3.266;2023-02-11T14:14:20;11.50;99.90
21061;DHT22;10689;50.836;3.266;2023-02-11T14:16:23;11.60;99.90
21061;DHT22;10689;50.836;3.266;2023-02-11T14:31:54;11.50;99.90
21061;DHT22;10689;50.836;3.266;2023-02-11T14:40:25;11.30;99.90
21061;DHT22;10689;50.836;3.266;2023-02-11T14:42:53;11.10;99.90
21061;DHT22;10689;50.836;3.266;2023-02-11T14:45:25;11.00;99.90
21061;DHT22;10689;50.836;3.266;2023-02-11T14:48:07;11.00;99.90
21061;DHT22;10689;50.836;3.266;2023-02-11T14:50:49;11.20;99.90
21061;DHT22;10689;50.836;3.266;2023-02-11T14:53:21;11.20;99.90
21061;DHT22;10689;50.836;3.266;2023-02-11T14:55:49;11.10;99.90
21061;DHT22;10689;50.836;3.266;2023-02-11T14:58:26;11.20;99.90
21061;DHT22;10689;50.836;3.266;2023-02-11T15:00:59;11.50;99.90
21061;DHT22;10689;50.836;3.266;2023-02-11T15:03:30;11.50;99.90
21061;DHT22;10689;50.836;3.266;2023-02-11T15:08:49;11.50;99.90
21061;DHT22;10689;50.836;3.266;2023-02-11T15:11:20;11.50;99.90
21061;DHT22;10689;50.836;3.266;2023-02-11T15:13:49;11.50;99.90
21061;DHT22;10689;50.836;3.266;2023-02-11T15:16:19;11.60;99.90
21061;DHT22;10689;50.836;3.266;2023-02-11T15:19:06;11.70;99.90
21061;DHT22;10689;50.836;3.266;2023-02-11T15:21:33;11.50;99.90
21061;DHT22;10689;50.836;3.266;2023-02-11T15:26:25;11.40;99.90
21061;DHT22;10689;50.836;3.266;2023-02-11T15:28:51;11.60;99.90
21061;DHT22;10689;50.836;3.266;2023-02-11T15:31:20;11.50;99.90
21061;DHT22;10689;50.836;3.266;2023-02-11T15:33:48;11.60;99.90
21061;DHT22;10689;50.836;3.266;2023-02-11T15:36:15;11.60;99.90
21061;DHT22;10689;50.836;3.266;2023-02-11T15:38:41;11.60;99.90
21061;DHT22;10689;50.836;3.266;2023-02-11T15:41:26;11.50;99.90
21061;DHT22;10689;50.836;3.266;2023-02-11T15:43:55;11.50;99.90
21061;DHT22;10689;50.836;3.266;2023-02-11T15:46:22;11.50;99.90
21061;DHT22;10689;50.836;3.266;2023-02-11T15:48:52;11.40;99.90
21061;DHT22;10689;50.836;3.266;2023-02-11T15:51:36;11.30;99.90
21061;DHT22;10689;50.836;3.266;2023-02-11T15:54:07;11.40;99.90
21061;DHT22;10689;50.836;3.266;2023-02-11T15:56:41;11.50;99.90
21061;DHT22;10689;50.836;3.266;2023-02-11T15:59:27;11.50;99.90
21061;DHT22;10689;50.836;3.266;2023-02-11T16:02:03;11.50;99.90
21061;DHT22;10689;50.836;3.266;2023-02-11T16:04:29;11.30;99.90
21061;DHT22;10689;50.836;3.266;2023-02-11T16:06:57;11.20;99.90
21061;DHT22;10689;50.836;3.266;2023-02-11T16:09:32;11.20;99.90
21061;DHT22;10689;50.836;3.266;2023-02-11T16:12:21;11.20;99.90
21061;DHT22;10689;50.836;3.266;2023-02-11T16:14:47;11.10;99.90
21061;DHT22;10689;50.836;3.266;2023-02-11T16:17:26;11.10;99.90
21061;DHT22;10689;50.836;3.266;2023-02-11T16:19:53;10.80;99.90
21061;DHT22;10689;50.836;3.266;2023-02-11T16:22:29;10.70;99.90
21061;DHT22;10689;50.836;3.266;2023-02-11T16:25:00;10.90;99.90
21061;DHT22;10689;50.836;3.266;2023-02-11T16:27:29;10.90;99.90
21061;DHT22;10689;50.836;3.266;2023-02-11T16:29:57;10.90;99.90
21061;DHT22;10689;50.836;3.266;2023-02-11T16:32:28;11.00;99.90
21061;DHT22;10689;50.836;3.266;2023-02-11T16:34:57;10.90;99.90
21061;DHT22;10689;50.836;3.266;2023-02-11T16:37:24;10.90;99.90
21061;DHT22;10689;50.836;3.266;2023-02-11T16:39:52;11.00;99.90
21061;DHT22;10689;50.836;3.266;2023-02-11T16:42:18;10.90;99.90
21061;DHT22;10689;50.836;3.266;2023-02-11T16:44:46;10.90;99.90
21061;DHT22;10689;50.836;3.266;2023-02-11T16:47:26;11.00;99.90
21061;DHT22;10689;50.836;3.266;2023-02-11T16:49:55;11.00;99.90
21061;DHT22;10689;50.836;3.266;2023-02-11T16:52:21;10.90;99.90
21061;DHT22;10689;50.836;3.266;2023-02-11T16:54:50;10.80;99.90
21061;DHT22;10689;50.836;3.266;2023-02-11T16:57:20;10.80;99.90
21061;DHT22;10689;50.836;3.266;2023-02-11T16:59:49;10.90;99.90
21061;DHT22;10689;50.836;3.266;2023-02-11T17:04:42;10.90;99.90
21061;DHT22;10689;50.836;3.266;2023-02-11T17:07:07;10.90;99.90
21061;DHT22;10689;50.836;3.266;2023-02-11T17:09:33;10.80;99.90
21061;DHT22;10689;50.836;3.266;2023-02-11T17:11:59;10.90;99.90
21061;DHT22;10689;50.836;3.266;2023-02-11T17:14:25;11.00;99.90
21061;DHT22;10689;50.836;3.266;2023-02-11T17:16:50;11.00;99.90
21061;DHT22;10689;50.836;3.266;2023-02-11T17:19:18;10.90;99.90
21061;DHT22;10689;50.836;3.266;2023-02-11T17:21:47;10.90;99.90
21061;DHT22;10689;50.836;3.266;2023-02-11T17:24:13;10.90;99.90
21061;DHT22;10689;50.836;3.266;2023-02-11T17:26:42;11.00;99.90
21061;DHT22;10689;50.836;3.266;2023-02-11T17:29:16;11.00;99.90
21061;DHT22;10689;50.836;3.266;2023-02-11T17:31:44;11.00;99.90
21061;DHT22;10689;50.836;3.266;2023-02-11T17:34:10;10.90;99.90
21061;DHT22;10689;50.836;3.266;2023-02-11T17:36:36;10.90;99.90
21061;DHT22;10689;50.836;3.266;2023-02-11T17:39:06;11.00;99.90
21061;DHT22;10689;50.836;3.266;2023-02-11T17:41:36;10.90;99.90
21061;DHT22;10689;50.836;3.266;2023-02-11T17:44:02;10.90;99.90
21061;DHT22;10689;50.836;3.266;2023-02-11T17:46:27;10.90;99.90
21061;DHT22;10689;50.836;3.266;2023-02-11T17:48:54;10.90;99.90
21061;DHT22;10689;50.836;3.266;2023-02-11T17:51:24;10.90;99.90
21061;DHT22;10689;50.836;3.266;2023-02-11T17:53:52;10.80;99.90
21061;DHT22;10689;50.836;3.266;2023-02-11T17:56:20;10.80;99.90
21061;DHT22;10689;50.836;3.266;2023-02-11T17:58:46;10.80;99.90
21061;DHT22;10689;50.836;3.266;2023-02-11T18:01:14;10.80;99.90
21061;DHT22;10689;50.836;3.266;2023-02-11T18:03:40;10.90;99.90
21061;DHT22;10689;50.836;3.266;2023-02-11T18:06:08;10.90;99.90
21061;DHT22;10689;50.836;3.266;2023-02-11T18:08:34;10.80;99.90
21061;DHT22;10689;50.836;3.266;2023-02-11T18:11:00;10.90;99.90
21061;DHT22;10689;50.836;3.266;2023-02-11T18:13:29;11.10;99.90
21061;DHT22;10689;50.836;3.266;2023-02-11T18:16:01;11.10;99.90
21061;DHT22;10689;50.836;3.266;2023-02-11T18:18:30;11.00;99.90
21061;DHT22;10689;50.836;3.266;2023-02-11T18:21:01;10.90;99.90
21061;DHT22;10689;50.836;3.266;2023-02-11T18:23:32;10.90;99.90
21061;DHT22;10689;50.836;3.266;2023-02-11T18:25:58;10.90;99.90
21061;DHT22;10689;50.836;3.266;2023-02-11T18:28:24;10.80;99.90
21061;DHT22;10689;50.836;3.266;2023-02-11T18:30:58;10.80;99.90